createdAt,value
2022-12-23T00:00:55.339Z,9.06
2022-12-23T00:01:55.503Z,9.08
2022-12-23T00:02:56.329Z,9.08
2022-12-23T00:03:55.708Z,9.04
2022-12-23T00:04:55.401Z,9.1
2022-12-23T00:05:55.424Z,9.21
2022-12-23T00:06:55.415Z,9.23
2022-12-23T00:07:55.223Z,9.1
2022-12-23T00:08:55.462Z,9.06
2022-12-23T00:09:55.505Z,9.18
2022-12-23T00:10:55.269Z,9.18
2022-12-23T00:11:55.243Z,9.19
2022-12-23T00:12:55.287Z,9.04
2022-12-23T00:13:55.529Z,9.04
2022-12-23T00:14:55.313Z,9.23
2022-12-23T00:15:55.409Z,9.1
2022-12-23T00:16:56.534Z,9.11
2022-12-23T00:17:55.345Z,9.06
2022-12-23T00:18:55.378Z,9.08
2022-12-23T00:19:55.668Z,9.14
2022-12-23T00:20:55.638Z,9.21
2022-12-23T00:21:55.679Z,9.16
2022-12-23T00:22:55.679Z,9.19
2022-12-23T00:23:55.441Z,9.06
2022-12-23T00:24:55.708Z,9.21
2022-12-23T00:25:56.637Z,9.13
2022-12-23T00:26:55.751Z,9.22
2022-12-23T00:27:55.767Z,9.14
2022-12-23T00:28:55.779Z,9.19
2022-12-23T00:29:55.777Z,9.18
2022-12-23T00:30:55.541Z,9.18
2022-12-23T00:31:55.717Z,9.18
2022-12-23T00:32:55.830Z,9.18
2022-12-23T00:33:55.701Z,9.19
2022-12-23T00:34:55.847Z,9.18
2022-12-23T00:35:56.113Z,9.16
2022-12-23T00:36:55.617Z,9.19
2022-12-23T00:37:55.901Z,9.21
2022-12-23T00:38:55.916Z,9.21
2022-12-23T00:40:07.092Z,9.21
2022-12-23T00:40:55.948Z,9.26
2022-12-23T00:41:55.726Z,9.21
2022-12-23T00:42:56.007Z,9.21
2022-12-23T00:43:55.750Z,9.19
2022-12-23T00:44:56.076Z,9.21
2022-12-23T00:45:56.132Z,9.21
2022-12-23T00:46:56.042Z,9.22
2022-12-23T00:47:56.051Z,9.21
2022-12-23T00:48:56.063Z,9.11
2022-12-23T00:49:55.837Z,9.19
2022-12-23T00:50:55.839Z,9.14
2022-12-23T00:51:55.870Z,9.18
2022-12-23T00:52:55.891Z,9.21
2022-12-23T00:53:55.885Z,9.26
2022-12-23T00:54:55.637Z,9.19
2022-12-23T00:55:56.213Z,9.21
2022-12-23T00:56:56.414Z,9.19
2022-12-23T00:57:56.221Z,9.21
2022-12-23T00:58:56.346Z,9.19
2022-12-23T00:59:56.235Z,9.22
2022-12-23T01:01:02.843Z,9.22
2022-12-23T01:01:56.961Z,9.19
2022-12-23T01:02:56.934Z,9.16
2022-12-23T01:03:56.155Z,9.23
2022-12-23T01:04:56.302Z,9.18
2022-12-23T01:05:56.329Z,9.23
2022-12-23T01:06:56.355Z,9.18
2022-12-23T01:07:56.366Z,9.21
2022-12-23T01:08:56.314Z,9.16
2022-12-23T01:09:56.208Z,9.18
2022-12-23T01:10:56.175Z,9.14
2022-12-23T01:11:56.473Z,9.22
2022-12-23T01:12:56.437Z,9.22
2022-12-23T01:13:56.442Z,9.14
2022-12-23T01:14:56.609Z,9.18
2022-12-23T01:15:56.229Z,9.14
2022-12-23T01:16:56.733Z,9.18
2022-12-23T01:17:56.249Z,9.14
2022-12-23T01:18:56.541Z,9.14
2022-12-23T01:19:56.595Z,9.14
2022-12-23T01:20:56.576Z,9.18
2022-12-23T01:21:56.574Z,9.22
2022-12-23T01:22:56.339Z,9.25
2022-12-23T01:23:56.610Z,9.19
2022-12-23T01:24:56.642Z,9.22
2022-12-23T01:25:56.650Z,9.26
2022-12-23T01:26:56.653Z,9.28
2022-12-23T01:27:56.692Z,9.21
2022-12-23T01:28:56.416Z,9.14
2022-12-23T01:29:56.743Z,9.26
2022-12-23T01:30:56.741Z,9.14
2022-12-23T01:31:57.222Z,9.26
2022-12-23T01:32:56.528Z,9.26
2022-12-23T01:33:56.496Z,9.22
2022-12-23T01:34:56.795Z,9.22
2022-12-23T01:35:56.779Z,9.29
2022-12-23T01:36:56.819Z,9.21
2022-12-23T01:37:56.572Z,9.23
2022-12-23T01:38:56.860Z,9.26
2022-12-23T01:39:56.840Z,9.29
2022-12-23T01:40:56.886Z,9.26
2022-12-23T01:41:56.894Z,9.26
2022-12-23T01:42:56.897Z,9.29
2022-12-23T01:43:57.084Z,9.26
2022-12-23T01:44:56.929Z,9.26
2022-12-23T01:45:57.161Z,9.29
2022-12-23T01:46:56.984Z,9.29
2022-12-23T01:47:57.003Z,9.29
2022-12-23T01:48:57.009Z,9.28
2022-12-23T01:49:56.475Z,9.23
2022-12-23T01:50:57.014Z,9.22
2022-12-23T01:51:57.057Z,9.23
2022-12-23T01:53:00.450Z,9.25
2022-12-23T01:53:57.064Z,9.22
2022-12-23T01:54:57.076Z,9.21
2022-12-23T01:55:57.180Z,9.31
2022-12-23T01:56:56.677Z,9.26
2022-12-23T01:57:57.137Z,9.29
2022-12-23T01:58:57.297Z,9.31
2022-12-23T01:59:56.921Z,9.25
2022-12-23T02:00:57.393Z,9.32
2022-12-23T02:01:57.305Z,9.32
2022-12-23T02:02:57.704Z,9.28
2022-12-23T02:03:57.228Z,9.21
2022-12-23T02:04:57.256Z,9.26
2022-12-23T02:05:56.988Z,9.25
2022-12-23T02:06:57.275Z,9.28
2022-12-23T02:07:57.291Z,9.31
2022-12-23T02:08:57.293Z,9.25
2022-12-23T02:09:57.313Z,9.28
2022-12-23T02:10:56.801Z,9.26
2022-12-23T02:11:57.080Z,9.28
2022-12-23T02:12:57.356Z,9.34
2022-12-23T02:13:57.367Z,9.25
2022-12-23T02:14:57.132Z,9.26
2022-12-23T02:15:57.430Z,9.26
2022-12-23T02:16:57.803Z,9.32
2022-12-23T02:17:57.214Z,9.26
2022-12-23T02:18:57.485Z,9.28
2022-12-23T02:19:57.491Z,9.26
2022-12-23T02:20:57.503Z,9.25
2022-12-23T02:21:57.809Z,9.26
2022-12-23T02:22:57.516Z,9.29
2022-12-23T02:23:57.533Z,9.28
2022-12-23T02:24:57.542Z,9.28
2022-12-23T02:25:57.562Z,9.26
2022-12-23T02:26:57.591Z,9.29
2022-12-23T02:27:57.600Z,9.34
2022-12-23T02:28:57.600Z,9.34
2022-12-23T02:29:57.632Z,9.32
2022-12-23T02:30:57.606Z,9.32
2022-12-23T02:31:57.691Z,9.29
2022-12-23T02:32:57.660Z,9.32
2022-12-23T02:33:57.677Z,9.31
2022-12-23T02:34:57.761Z,9.31
2022-12-23T02:35:57.754Z,9.31
2022-12-23T02:36:57.566Z,9.37
2022-12-23T02:37:57.737Z,9.36
2022-12-23T02:38:57.753Z,9.32
2022-12-23T02:39:57.775Z,9.29
2022-12-23T02:40:57.516Z,9.36
2022-12-23T02:41:57.803Z,9.29
2022-12-23T02:42:57.311Z,9.36
2022-12-23T02:43:57.811Z,9.29
2022-12-23T02:44:57.603Z,9.34
2022-12-23T02:45:57.935Z,9.34
2022-12-23T02:46:57.871Z,9.29
2022-12-23T02:47:57.925Z,9.36
2022-12-23T02:48:57.917Z,9.39
2022-12-23T02:49:57.929Z,9.36
2022-12-23T02:50:58.023Z,9.34
2022-12-23T02:51:57.961Z,9.34
2022-12-23T02:52:57.994Z,9.34
2022-12-23T02:53:58.003Z,9.39
2022-12-23T02:54:57.996Z,9.32
2022-12-23T02:55:57.751Z,9.37
2022-12-23T02:56:58.025Z,9.39
2022-12-23T02:57:58.063Z,9.39
2022-12-23T02:58:57.837Z,9.32
2022-12-23T02:59:57.858Z,9.29
2022-12-23T03:00:58.095Z,9.32
2022-12-23T03:01:58.657Z,9.34
2022-12-23T03:02:58.307Z,9.36
2022-12-23T03:03:58.345Z,9.37
2022-12-23T03:04:58.801Z,9.39
2022-12-23T03:05:58.195Z,9.37
2022-12-23T03:06:59.181Z,9.29
2022-12-23T03:07:58.205Z,9.32
2022-12-23T03:08:58.235Z,9.39
2022-12-23T03:09:57.979Z,9.39
2022-12-23T03:10:58.249Z,9.39
2022-12-23T03:11:58.283Z,9.39
2022-12-23T03:12:58.029Z,9.39
2022-12-23T03:13:58.052Z,9.36
2022-12-23T03:14:58.072Z,9.4
2022-12-23T03:15:58.540Z,9.36
2022-12-23T03:16:58.136Z,9.41
2022-12-23T03:17:58.342Z,9.37
2022-12-23T03:18:58.104Z,9.36
2022-12-23T03:19:58.421Z,9.43
2022-12-23T03:20:58.140Z,9.39
2022-12-23T03:21:58.419Z,9.44
2022-12-23T03:22:58.569Z,9.41
2022-12-23T03:24:00.808Z,9.4
2022-12-23T03:24:58.460Z,9.39
2022-12-23T03:25:58.210Z,9.46
2022-12-23T03:26:58.485Z,9.44
2022-12-23T03:27:58.260Z,9.48
2022-12-23T03:28:58.259Z,9.43
2022-12-23T03:29:58.536Z,9.43
2022-12-23T03:30:58.964Z,9.36
2022-12-23T03:31:58.595Z,9.39
2022-12-23T03:32:58.574Z,9.44
2022-12-23T03:33:58.610Z,9.39
2022-12-23T03:34:58.614Z,9.31
2022-12-23T03:35:58.657Z,9.34
2022-12-23T03:36:58.659Z,9.44
2022-12-23T03:37:58.390Z,9.37
2022-12-23T03:38:58.686Z,9.4
2022-12-23T03:39:58.713Z,9.37
2022-12-23T03:40:58.713Z,9.37
2022-12-23T03:41:58.719Z,9.41
2022-12-23T03:42:58.748Z,9.43
2022-12-23T03:43:58.506Z,9.43
2022-12-23T03:45:43.417Z,9.44
2022-12-23T03:45:58.993Z,9.4
2022-12-23T03:46:59.032Z,9.31
2022-12-23T03:47:58.819Z,9.43
2022-12-23T03:48:58.822Z,9.34
2022-12-23T03:49:58.847Z,9.34
2022-12-23T03:50:58.897Z,9.34
2022-12-23T03:51:58.634Z,9.48
2022-12-23T03:52:58.921Z,9.41
2022-12-23T03:53:58.895Z,9.37
2022-12-23T03:54:58.953Z,9.46
2022-12-23T03:55:58.694Z,9.36
2022-12-23T03:56:58.705Z,9.43
2022-12-23T03:57:58.967Z,9.5
2022-12-23T03:58:58.994Z,9.46
2022-12-23T03:59:59.051Z,9.41
2022-12-23T04:00:58.797Z,9.46
2022-12-23T04:01:59.610Z,9.48
2022-12-23T04:02:59.049Z,9.47
2022-12-23T04:03:59.189Z,9.5
2022-12-23T04:04:59.102Z,9.44
2022-12-23T04:05:59.073Z,9.44
2022-12-23T04:06:59.112Z,9.39
2022-12-23T04:07:58.882Z,9.47
2022-12-23T04:08:59.130Z,9.51
2022-12-23T04:09:59.177Z,9.43
2022-12-23T04:10:59.218Z,9.5
2022-12-23T04:11:59.284Z,9.41
2022-12-23T04:12:59.218Z,9.51
2022-12-23T04:13:59.235Z,9.41
2022-12-23T04:14:58.985Z,9.46
2022-12-23T04:15:59.161Z,9.46
2022-12-23T04:16:59.642Z,9.43
2022-12-23T04:17:59.004Z,9.47
2022-12-23T04:18:59.024Z,9.44
2022-12-23T04:19:59.310Z,9.46
2022-12-23T04:20:59.328Z,9.46
2022-12-23T04:21:59.337Z,9.55
2022-12-23T04:22:59.354Z,9.4
2022-12-23T04:23:59.396Z,9.41
2022-12-23T04:24:59.388Z,9.4
2022-12-23T04:25:59.393Z,9.34
2022-12-23T04:26:59.485Z,9.47
2022-12-23T04:27:59.440Z,9.48
2022-12-23T04:28:59.431Z,9.43
2022-12-23T04:29:59.461Z,9.37
2022-12-23T04:30:59.719Z,9.41
2022-12-23T04:31:59.806Z,9.39
2022-12-23T04:32:59.492Z,9.55
2022-12-23T04:33:59.282Z,9.5
2022-12-23T04:34:59.524Z,9.47
2022-12-23T04:35:59.576Z,9.54
2022-12-23T04:36:59.336Z,9.51
2022-12-23T04:37:59.595Z,9.5
2022-12-23T04:38:59.335Z,9.43
2022-12-23T04:39:59.648Z,9.48
2022-12-23T04:40:59.616Z,9.5
2022-12-23T04:41:59.650Z,9.47
2022-12-23T04:42:59.734Z,9.5
2022-12-23T04:43:59.699Z,9.46
2022-12-23T04:44:59.422Z,9.54
2022-12-23T04:45:59.700Z,9.51
2022-12-23T04:46:59.896Z,9.41
2022-12-23T04:47:59.734Z,9.5
2022-12-23T04:48:59.844Z,9.48
2022-12-23T04:49:59.761Z,9.46
2022-12-23T04:50:59.786Z,9.55
2022-12-23T04:51:59.790Z,9.48
2022-12-23T04:52:59.289Z,9.46
2022-12-23T04:53:59.816Z,9.51
2022-12-23T04:54:59.832Z,9.47
2022-12-23T04:55:59.891Z,9.44
2022-12-23T04:56:59.873Z,9.48
2022-12-23T04:57:59.897Z,9.5
2022-12-23T04:59:00.015Z,9.48
2022-12-23T04:59:59.968Z,9.46
2022-12-23T05:00:59.834Z,9.46
2022-12-23T05:02:00.723Z,9.47
2022-12-23T05:03:00.478Z,9.51
2022-12-23T05:03:59.741Z,9.46
2022-12-23T05:04:59.990Z,9.47
2022-12-23T05:05:59.767Z,9.46
2022-12-23T05:07:00.041Z,9.44
2022-12-23T05:08:00.037Z,9.5
2022-12-23T05:08:59.803Z,9.46
2022-12-23T05:09:59.819Z,9.47
2022-12-23T05:11:00.129Z,9.44
2022-12-23T05:12:00.124Z,9.55
2022-12-23T05:13:00.157Z,9.5
2022-12-23T05:13:59.891Z,9.47
2022-12-23T05:14:59.926Z,9.5
2022-12-23T05:16:00.271Z,9.48
2022-12-23T05:17:08.150Z,9.5
2022-12-23T05:17:59.928Z,9.5
2022-12-23T05:19:00.246Z,9.46
2022-12-23T05:20:00.221Z,9.48
2022-12-23T05:21:00.235Z,9.46
2022-12-23T05:22:00.001Z,9.51
2022-12-23T05:23:00.040Z,9.44
2022-12-23T05:24:00.306Z,9.51
2022-12-23T05:25:00.298Z,9.54
2022-12-23T05:26:00.073Z,9.55
2022-12-23T05:27:04.954Z,9.44
2022-12-23T05:28:00.369Z,9.56
2022-12-23T05:29:00.369Z,9.5
2022-12-23T05:30:00.374Z,9.55
2022-12-23T05:31:00.418Z,9.5
2022-12-23T05:32:00.829Z,9.51
2022-12-23T05:33:00.542Z,9.54
2022-12-23T05:34:09.275Z,9.58
2022-12-23T05:35:00.476Z,9.5
2022-12-23T05:36:00.478Z,9.5
2022-12-23T05:37:00.475Z,9.51
2022-12-23T05:38:00.495Z,9.55
2022-12-23T05:39:00.237Z,9.48
2022-12-23T05:40:00.751Z,9.5
2022-12-23T05:41:00.566Z,9.58
2022-12-23T05:42:00.552Z,9.51
2022-12-23T05:43:00.717Z,9.55
2022-12-23T05:44:00.631Z,9.5
2022-12-23T05:45:00.350Z,9.54
2022-12-23T05:46:00.869Z,9.59
2022-12-23T05:47:00.680Z,9.58
2022-12-23T05:48:00.675Z,9.58
2022-12-23T05:49:00.785Z,9.54
2022-12-23T05:50:00.685Z,9.5
2022-12-23T05:51:00.735Z,9.58
2022-12-23T05:52:00.726Z,9.54
2022-12-23T05:53:00.721Z,9.58
2022-12-23T05:54:00.737Z,9.51
2022-12-23T05:55:00.762Z,9.58
2022-12-23T05:56:00.505Z,9.59
2022-12-23T05:57:00.809Z,9.56
2022-12-23T05:58:00.577Z,9.61
2022-12-23T05:59:00.821Z,9.56
2022-12-23T06:00:00.864Z,9.56
2022-12-23T06:01:00.840Z,9.55
2022-12-23T06:02:01.245Z,9.48
2022-12-23T06:03:01.579Z,9.48
2022-12-23T06:04:01.436Z,9.56
2022-12-23T06:05:00.907Z,9.55
2022-12-23T06:06:00.933Z,9.56
2022-12-23T06:07:00.975Z,9.59
2022-12-23T06:08:00.969Z,9.58
2022-12-23T06:09:04.954Z,9.55
2022-12-23T06:10:00.982Z,9.55
2022-12-23T06:11:00.999Z,9.58
2022-12-23T06:12:01.001Z,9.58
2022-12-23T06:13:01.059Z,9.58
2022-12-23T06:14:01.052Z,9.56
2022-12-23T06:15:01.059Z,9.58
2022-12-23T06:16:01.324Z,9.54
2022-12-23T06:17:01.572Z,9.58
2022-12-23T06:18:01.093Z,9.59
2022-12-23T06:19:00.917Z,9.58
2022-12-23T06:20:01.156Z,9.55
2022-12-23T06:21:01.157Z,9.54
2022-12-23T06:22:01.207Z,9.56
2022-12-23T06:23:00.922Z,9.65
2022-12-23T06:24:00.937Z,9.54
2022-12-23T06:25:01.225Z,9.54
2022-12-23T06:26:00.958Z,9.58
2022-12-23T06:27:02.390Z,9.58
2022-12-23T06:28:01.257Z,9.55
2022-12-23T06:29:01.274Z,9.54
2022-12-23T06:30:01.056Z,9.56
2022-12-23T06:31:01.313Z,9.56
2022-12-23T06:32:01.630Z,9.58
2022-12-23T06:33:01.350Z,9.54
2022-12-23T06:34:01.382Z,9.56
2022-12-23T06:35:01.404Z,9.54
2022-12-23T06:36:01.437Z,9.54
2022-12-23T06:37:01.414Z,9.56
2022-12-23T06:38:01.464Z,9.5
2022-12-23T06:39:01.163Z,9.54
2022-12-23T06:40:01.201Z,9.59
2022-12-23T06:41:01.475Z,9.58
2022-12-23T06:42:01.480Z,9.54
2022-12-23T06:43:01.241Z,9.51
2022-12-23T06:44:01.552Z,9.55
2022-12-23T06:45:01.510Z,9.64
2022-12-23T06:46:01.520Z,9.55
2022-12-23T06:47:01.330Z,9.58
2022-12-23T06:48:01.616Z,9.58
2022-12-23T06:49:02.572Z,9.56
2022-12-23T06:50:01.590Z,9.56
2022-12-23T06:51:01.660Z,9.54
2022-12-23T06:52:01.698Z,9.55
2022-12-23T06:53:01.650Z,9.62
2022-12-23T06:54:01.661Z,9.58
2022-12-23T06:55:01.427Z,9.56
2022-12-23T06:56:01.434Z,9.56
2022-12-23T06:57:01.701Z,9.58
2022-12-23T06:58:01.748Z,9.68
2022-12-23T06:59:01.481Z,9.56
2022-12-23T07:00:01.808Z,9.55
2022-12-23T07:01:01.916Z,9.65
2022-12-23T07:02:02.337Z,9.55
2022-12-23T07:03:02.311Z,9.59
2022-12-23T07:04:01.902Z,9.62
2022-12-23T07:05:01.839Z,9.55
2022-12-23T07:06:01.844Z,9.51
2022-12-23T07:07:01.908Z,9.58
2022-12-23T07:08:01.986Z,9.56
2022-12-23T07:09:01.920Z,9.64
2022-12-23T07:10:01.907Z,9.66
2022-12-23T07:11:01.660Z,9.64
2022-12-23T07:12:01.691Z,9.66
2022-12-23T07:13:01.940Z,9.65
2022-12-23T07:14:01.751Z,9.55
2022-12-23T07:15:01.995Z,9.55
2022-12-23T07:16:01.999Z,9.62
2022-12-23T07:17:02.250Z,9.55
2022-12-23T07:18:01.792Z,9.69
2022-12-23T07:19:02.050Z,9.58
2022-12-23T07:20:02.152Z,9.58
2022-12-23T07:21:02.069Z,9.61
2022-12-23T07:22:02.079Z,9.61
2022-12-23T07:23:02.132Z,9.55
2022-12-23T07:24:02.596Z,9.61
2022-12-23T07:25:01.900Z,9.64
2022-12-23T07:26:02.158Z,9.69
2022-12-23T07:27:02.185Z,9.62
2022-12-23T07:28:02.179Z,9.64
2022-12-23T07:29:02.197Z,9.69
2022-12-23T07:30:02.203Z,9.59
2022-12-23T07:31:02.025Z,9.65
2022-12-23T07:32:02.566Z,9.65
2022-12-23T07:33:02.026Z,9.56
2022-12-23T07:34:02.020Z,9.61
2022-12-23T07:35:02.046Z,9.61
2022-12-23T07:36:02.324Z,9.68
2022-12-23T07:37:02.068Z,9.64
2022-12-23T07:38:02.343Z,9.69
2022-12-23T07:39:02.426Z,9.61
2022-12-23T07:40:09.225Z,9.65
2022-12-23T07:41:02.396Z,9.59
2022-12-23T07:42:49.044Z,9.66
2022-12-23T07:43:02.453Z,9.68
2022-12-23T07:44:02.194Z,9.66
2022-12-23T07:45:02.462Z,9.58
2022-12-23T07:46:06.037Z,9.61
2022-12-23T07:47:02.498Z,9.68
2022-12-23T07:48:02.503Z,9.68
2022-12-23T07:49:02.527Z,9.68
2022-12-23T07:50:02.598Z,9.77
2022-12-23T07:51:02.282Z,9.68
2022-12-23T07:52:02.577Z,9.73
2022-12-23T07:53:02.308Z,9.68
2022-12-23T07:54:02.597Z,9.65
2022-12-23T07:55:02.648Z,9.68
2022-12-23T07:56:02.370Z,9.73
2022-12-23T07:57:02.630Z,9.68
2022-12-23T07:58:02.651Z,9.74
2022-12-23T07:59:02.659Z,9.68
2022-12-23T08:00:02.979Z,9.72
2022-12-23T08:01:03.108Z,9.68
2022-12-23T08:02:03.275Z,9.77
2022-12-23T08:03:03.097Z,9.69
2022-12-23T08:04:02.712Z,9.68
2022-12-23T08:05:02.987Z,9.66
2022-12-23T08:06:02.870Z,9.68
2022-12-23T08:07:02.540Z,9.72
2022-12-23T08:08:02.953Z,9.72
2022-12-23T08:09:02.972Z,9.66
2022-12-23T08:10:03.038Z,9.68
2022-12-23T08:11:03.063Z,9.73
2022-12-23T08:12:02.939Z,9.72
2022-12-23T08:13:02.624Z,9.73
2022-12-23T08:14:02.660Z,9.72
2022-12-23T08:15:02.987Z,9.74
2022-12-23T08:16:02.674Z,9.65
2022-12-23T08:17:03.165Z,9.74
2022-12-23T08:18:02.956Z,9.73
2022-12-23T08:19:02.717Z,9.74
2022-12-23T08:20:02.997Z,9.76
2022-12-23T08:21:02.997Z,9.73
2022-12-23T08:22:03.018Z,9.65
2022-12-23T08:23:03.047Z,9.73
2022-12-23T08:24:03.100Z,9.62
2022-12-23T08:25:03.091Z,9.72
2022-12-23T08:26:03.085Z,9.68
2022-12-23T08:27:03.109Z,9.69
2022-12-23T08:28:03.172Z,9.69
2022-12-23T08:29:03.136Z,9.68
2022-12-23T08:30:03.196Z,9.68
2022-12-23T08:31:03.112Z,9.72
2022-12-23T08:32:03.164Z,9.74
2022-12-23T08:33:03.212Z,9.65
2022-12-23T08:34:03.191Z,9.68
2022-12-23T08:35:02.966Z,9.72
2022-12-23T08:36:03.263Z,9.68
2022-12-23T08:37:03.266Z,9.72
2022-12-23T08:38:03.273Z,9.74
2022-12-23T08:39:03.272Z,9.72
2022-12-23T08:40:03.333Z,9.69
2022-12-23T08:41:03.324Z,9.74
2022-12-23T08:42:03.339Z,9.66
2022-12-23T08:43:03.359Z,9.66
2022-12-23T08:44:03.449Z,9.77
2022-12-23T08:45:03.374Z,9.66
2022-12-23T08:46:03.388Z,9.77
2022-12-23T08:47:03.409Z,9.73
2022-12-23T08:48:03.418Z,9.74
2022-12-23T08:49:03.433Z,9.73
2022-12-23T08:50:03.440Z,9.73
2022-12-23T08:51:03.191Z,9.74
2022-12-23T08:52:03.483Z,9.73
2022-12-23T08:53:03.221Z,9.73
2022-12-23T08:54:05.917Z,9.69
2022-12-23T08:55:03.271Z,9.68
2022-12-23T08:56:03.573Z,9.77
2022-12-23T08:57:03.330Z,9.76
2022-12-23T08:58:03.582Z,9.77
2022-12-23T08:59:03.621Z,9.74
2022-12-23T09:00:03.643Z,9.69
2022-12-23T09:01:03.663Z,9.76
2022-12-23T09:02:04.319Z,9.76
2022-12-23T09:03:03.861Z,9.74
2022-12-23T09:04:04.119Z,9.77
2022-12-23T09:05:03.679Z,9.82
2022-12-23T09:06:03.726Z,9.79
2022-12-23T09:07:03.696Z,9.74
2022-12-23T09:08:03.468Z,9.8
2022-12-23T09:09:03.492Z,9.69
2022-12-23T09:10:03.771Z,9.74
2022-12-23T09:11:03.792Z,9.68
2022-12-23T09:12:03.911Z,9.69
2022-12-23T09:13:03.797Z,9.82
2022-12-23T09:14:03.821Z,9.77
2022-12-23T09:15:03.896Z,9.76
2022-12-23T09:16:04.065Z,9.73
2022-12-23T09:17:04.372Z,9.8
2022-12-23T09:18:03.877Z,9.76
2022-12-23T09:19:03.894Z,9.77
2022-12-23T09:20:03.905Z,9.77
2022-12-23T09:21:03.921Z,9.77
2022-12-23T09:22:03.716Z,9.77
2022-12-23T09:23:03.977Z,9.79
2022-12-23T09:24:04.110Z,9.79
2022-12-23T09:25:09.890Z,9.76
2022-12-23T09:26:04.005Z,9.82
2022-12-23T09:27:04.017Z,9.76
2022-12-23T09:28:04.056Z,9.82
2022-12-23T09:29:04.095Z,9.8
2022-12-23T09:30:03.819Z,9.8
2022-12-23T09:31:04.261Z,9.79
2022-12-23T09:32:04.357Z,9.77
2022-12-23T09:33:03.858Z,9.76
2022-12-23T09:34:04.120Z,9.83
2022-12-23T09:35:03.911Z,9.83
2022-12-23T09:36:04.175Z,9.74
2022-12-23T09:37:04.055Z,9.77
2022-12-23T09:38:03.947Z,9.76
2022-12-23T09:39:03.999Z,9.84
2022-12-23T09:40:04.225Z,9.82
2022-12-23T09:41:04.234Z,9.76
2022-12-23T09:42:04.374Z,9.79
2022-12-23T09:43:04.028Z,9.77
2022-12-23T09:44:04.313Z,9.77
2022-12-23T09:45:04.325Z,9.8
2022-12-23T09:46:04.226Z,9.74
2022-12-23T09:47:04.475Z,9.82
2022-12-23T09:48:04.142Z,9.8
2022-12-23T09:49:04.403Z,9.79
2022-12-23T09:50:04.392Z,9.76
2022-12-23T09:51:04.390Z,9.76
2022-12-23T09:52:04.412Z,9.76
2022-12-23T09:53:04.449Z,9.82
2022-12-23T09:54:04.426Z,9.74
2022-12-23T09:55:04.440Z,9.74
2022-12-23T09:56:04.219Z,9.76
2022-12-23T09:57:04.488Z,9.73
2022-12-23T09:58:04.518Z,9.82
2022-12-23T09:59:04.514Z,9.74
2022-12-23T10:00:04.326Z,9.74
2022-12-23T10:01:04.555Z,9.79
2022-12-23T10:02:05.079Z,9.87
2022-12-23T10:03:05.723Z,9.83
2022-12-23T10:04:04.942Z,9.89
2022-12-23T10:05:04.610Z,9.77
2022-12-23T10:06:04.639Z,9.8
2022-12-23T10:07:08.096Z,9.77
2022-12-23T10:08:04.671Z,9.82
2022-12-23T10:09:04.668Z,9.91
2022-12-23T10:10:04.683Z,9.83
2022-12-23T10:11:04.711Z,9.8
2022-12-23T10:12:04.456Z,9.79
2022-12-23T10:13:04.729Z,9.74
2022-12-23T10:14:04.770Z,9.76
2022-12-23T10:15:04.779Z,9.79
2022-12-23T10:16:04.942Z,9.73
2022-12-23T10:17:04.965Z,9.76
2022-12-23T10:18:04.809Z,9.79
2022-12-23T10:19:04.360Z,9.76
2022-12-23T10:20:04.668Z,9.76
2022-12-23T10:21:04.604Z,9.83
2022-12-23T10:22:04.911Z,9.76
2022-12-23T10:23:04.885Z,9.82
2022-12-23T10:24:04.934Z,9.76
2022-12-23T10:25:05.020Z,9.87
2022-12-23T10:26:04.952Z,9.86
2022-12-23T10:27:04.973Z,9.77
2022-12-23T10:28:04.990Z,9.76
2022-12-23T10:29:04.719Z,9.79
2022-12-23T10:31:17.072Z,9.77
2022-12-23T10:31:57.111Z,9.87
2022-12-23T10:32:57.353Z,9.87
2022-12-23T10:33:57.253Z,9.76
2022-12-23T10:34:57.370Z,9.87
2022-12-23T10:35:57.537Z,9.84
2022-12-23T10:36:57.068Z,9.8
2022-12-23T10:37:57.061Z,9.84
2022-12-23T10:38:57.099Z,9.89
2022-12-23T10:39:56.861Z,9.79
2022-12-23T10:40:57.393Z,9.79
2022-12-23T10:41:57.127Z,9.86
2022-12-23T10:42:57.417Z,9.86
2022-12-23T10:43:57.849Z,9.91
2022-12-23T10:44:57.422Z,9.83
2022-12-23T10:45:57.507Z,9.86
2022-12-23T10:46:57.742Z,9.8
2022-12-23T10:47:57.527Z,9.84
2022-12-23T10:48:57.267Z,9.87
2022-12-23T10:49:57.499Z,9.86
2022-12-23T10:50:57.564Z,9.82
2022-12-23T10:51:57.565Z,9.87
2022-12-23T10:52:57.269Z,9.79
2022-12-23T10:53:57.567Z,9.91
2022-12-23T10:54:57.581Z,9.87
2022-12-23T10:55:57.379Z,9.84
2022-12-23T10:56:57.621Z,9.86
2022-12-23T10:57:57.658Z,9.84
2022-12-23T10:58:57.645Z,9.89
2022-12-23T10:59:57.398Z,9.91
2022-12-23T11:00:57.610Z,9.86
2022-12-23T11:01:58.551Z,9.91
2022-12-23T11:02:57.602Z,9.84
2022-12-23T11:03:57.925Z,9.87
2022-12-23T11:04:57.738Z,9.86
2022-12-23T11:05:57.485Z,9.79
2022-12-23T11:07:53.093Z,9.84
2022-12-23T11:08:03.005Z,9.87
2022-12-23T11:09:03.269Z,9.91
2022-12-23T11:10:03.292Z,9.89
2022-12-23T11:11:03.307Z,9.82
2022-12-23T11:12:03.092Z,9.92
2022-12-23T11:13:03.083Z,9.86
2022-12-23T11:14:03.353Z,9.86
2022-12-23T11:15:03.101Z,9.83
2022-12-23T11:16:03.505Z,9.89
2022-12-23T11:17:03.409Z,9.86
2022-12-23T11:18:03.809Z,9.84
2022-12-23T11:19:03.498Z,9.91
2022-12-23T11:20:03.458Z,9.83
2022-12-23T11:21:03.227Z,9.87
2022-12-23T11:22:03.499Z,9.89
2022-12-23T11:23:03.536Z,9.89
2022-12-23T11:24:03.508Z,9.91
2022-12-23T11:25:03.525Z,9.86
2022-12-23T11:26:03.288Z,9.92
2022-12-23T11:27:03.320Z,9.87
2022-12-23T11:28:03.324Z,9.86
2022-12-23T11:29:03.343Z,9.91
2022-12-23T11:30:03.609Z,9.84
2022-12-23T11:31:03.348Z,9.92
2022-12-23T11:32:03.835Z,9.94
2022-12-23T11:33:03.663Z,9.83
2022-12-23T11:34:03.403Z,9.86
2022-12-23T11:35:03.927Z,9.84
2022-12-23T11:36:03.690Z,9.91
2022-12-23T11:37:10.186Z,9.87
2022-12-23T11:38:03.474Z,9.86
2022-12-23T11:39:03.827Z,9.83
2022-12-23T11:40:03.501Z,9.87
2022-12-23T11:41:03.791Z,9.97
2022-12-23T11:42:03.777Z,9.91
2022-12-23T11:43:03.812Z,9.87
2022-12-23T11:44:03.832Z,9.97
2022-12-23T11:45:03.837Z,9.86
2022-12-23T11:46:03.562Z,9.84
2022-12-23T11:47:03.598Z,9.89
2022-12-23T11:48:03.626Z,9.89
2022-12-23T11:49:03.885Z,9.87
2022-12-23T11:50:03.964Z,9.87
2022-12-23T11:51:03.975Z,9.97
2022-12-23T11:52:03.933Z,9.94
2022-12-23T11:53:03.701Z,9.95
2022-12-23T11:54:03.729Z,9.91
2022-12-23T11:55:04.205Z,9.91
2022-12-23T11:56:04.002Z,9.86
2022-12-23T11:57:04.080Z,9.91
2022-12-23T11:58:04.019Z,9.95
2022-12-23T11:59:04.212Z,9.97
2022-12-23T12:00:03.825Z,9.98
2022-12-23T12:01:04.082Z,9.98
2022-12-23T12:02:04.053Z,9.98
2022-12-23T12:03:04.329Z,9.94
2022-12-23T12:04:04.536Z,9.98
2022-12-23T12:05:04.153Z,9.94
2022-12-23T12:06:04.176Z,9.91
2022-12-23T12:07:04.337Z,9.89
2022-12-23T12:08:04.185Z,9.91
2022-12-23T12:09:03.903Z,9.87
2022-12-23T12:10:04.028Z,9.94
2022-12-23T12:11:04.299Z,9.95
2022-12-23T12:12:04.240Z,9.94
2022-12-23T12:13:04.264Z,9.91
2022-12-23T12:14:04.340Z,9.98
2022-12-23T12:15:04.313Z,9.91
2022-12-23T12:16:04.362Z,9.94
2022-12-23T12:17:04.615Z,9.91
2022-12-23T12:18:04.746Z,9.95
2022-12-23T12:19:04.367Z,9.95
2022-12-23T12:20:04.414Z,9.99
2022-12-23T12:21:04.417Z,10.01
2022-12-23T12:22:04.409Z,9.94
2022-12-23T12:23:04.208Z,10.01
2022-12-23T12:24:22.617Z,10.07
2022-12-23T12:25:04.454Z,10.01
2022-12-23T12:26:04.503Z,9.94
2022-12-23T12:27:04.601Z,9.99
2022-12-23T12:28:04.527Z,10.04
2022-12-23T12:29:04.259Z,9.98
2022-12-23T12:30:11.526Z,9.97
2022-12-23T12:31:04.903Z,10.01
2022-12-23T12:32:04.324Z,9.98
2022-12-23T12:33:04.588Z,9.98
2022-12-23T12:34:04.348Z,10.02
2022-12-23T12:35:04.635Z,10.05
2022-12-23T12:36:10.365Z,9.99
2022-12-23T12:37:04.874Z,9.97
2022-12-23T12:38:04.657Z,9.94
2022-12-23T12:39:04.431Z,9.98
2022-12-23T12:40:04.694Z,10.04
2022-12-23T12:41:04.709Z,10.01
2022-12-23T12:42:10.469Z,9.98
2022-12-23T12:43:04.548Z,10.01
2022-12-23T12:44:04.240Z,10.02
2022-12-23T12:45:04.772Z,9.98
2022-12-23T12:46:04.932Z,10.01
2022-12-23T12:48:23.660Z,10.05
2022-12-23T12:49:21.099Z,10.04
2022-12-23T12:50:21.160Z,10.01
2022-12-23T12:51:21.128Z,10.02
2022-12-23T12:52:21.157Z,10.02
2022-12-23T12:53:20.885Z,10.04
2022-12-23T12:54:21.191Z,10.05
2022-12-23T12:55:21.165Z,10.09
2022-12-23T12:56:21.201Z,10.02
2022-12-23T12:57:21.333Z,10.02
2022-12-23T12:58:21.284Z,10.07
2022-12-23T12:59:21.251Z,10.04
2022-12-23T13:00:21.019Z,10.07
2022-12-23T13:01:21.256Z,10.01
2022-12-23T13:02:21.473Z,10.09
2022-12-23T13:03:21.309Z,10.09
2022-12-23T13:04:21.367Z,10.09
2022-12-23T13:05:20.818Z,10.07
2022-12-23T13:06:21.095Z,10.02
2022-12-23T13:07:21.098Z,10.02
2022-12-23T13:08:21.371Z,10.07
2022-12-23T13:09:21.137Z,9.97
2022-12-23T13:10:21.470Z,10.09
2022-12-23T13:11:28.293Z,10.09
2022-12-23T13:12:21.209Z,9.98
2022-12-23T13:13:21.250Z,10.05
2022-12-23T13:14:21.475Z,10.12
2022-12-23T13:15:21.501Z,10.07
2022-12-23T13:16:21.717Z,10.07
2022-12-23T13:17:21.823Z,10.1
2022-12-23T13:18:21.836Z,10.1
2022-12-23T13:19:21.311Z,10.1
2022-12-23T13:20:21.585Z,10.07
2022-12-23T13:21:21.601Z,10.04